sensor_id;sensor_type;location;lat;lon;timestamp;P1;durP1;ratioP1;P2;durP2;ratioP2
18726;SDS011;9492;51.888;5.186;2023-06-05T00:01:03;2.93;;;2.57;;
18726;SDS011;9492;51.888;5.186;2023-06-05T00:03:29;5.97;;;3.20;;
18726;SDS011;9492;51.888;5.186;2023-06-05T00:05:55;5.97;;;3.07;;
18726;SDS011;9492;51.888;5.186;2023-06-05T00:08:21;4.20;;;3.17;;
18726;SDS011;9492;51.888;5.186;2023-06-05T00:10:47;3.00;;;2.60;;
18726;SDS011;9492;51.888;5.186;2023-06-05T00:13:13;5.73;;;2.57;;
18726;SDS011;9492;51.888;5.186;2023-06-05T00:15:40;4.40;;;2.70;;
18726;SDS011;9492;51.888;5.186;2023-06-05T00:18:06;7.50;;;2.80;;
18726;SDS011;9492;51.888;5.186;2023-06-05T00:20:33;3.43;;;2.80;;
18726;SDS011;9492;51.888;5.186;2023-06-05T00:22:59;4.77;;;3.30;;
18726;SDS011;9492;51.888;5.186;2023-06-05T00:25:25;3.70;;;2.90;;
18726;SDS011;9492;51.888;5.186;2023-06-05T00:27:51;3.40;;;3.10;;
18726;SDS011;9492;51.888;5.186;2023-06-05T00:30:17;3.57;;;3.10;;
18726;SDS011;9492;51.888;5.186;2023-06-05T00:32:43;2.97;;;2.73;;
18726;SDS011;9492;51.888;5.186;2023-06-05T00:35:09;5.20;;;3.17;;
18726;SDS011;9492;51.888;5.186;2023-06-05T00:37:35;3.53;;;3.13;;
18726;SDS011;9492;51.888;5.186;2023-06-05T00:40:04;4.90;;;3.60;;
18726;SDS011;9492;51.888;5.186;2023-06-05T00:42:31;5.33;;;3.30;;
18726;SDS011;9492;51.888;5.186;2023-06-05T00:44:56;3.27;;;2.97;;
18726;SDS011;9492;51.888;5.186;2023-06-05T00:47:22;3.83;;;3.53;;
18726;SDS011;9492;51.888;5.186;2023-06-05T00:49:49;3.93;;;3.10;;
18726;SDS011;9492;51.888;5.186;2023-06-05T00:52:15;7.60;;;3.60;;
18726;SDS011;9492;51.888;5.186;2023-06-05T00:54:42;5.90;;;3.17;;
18726;SDS011;9492;51.888;5.186;2023-06-05T00:57:08;5.20;;;3.23;;
18726;SDS011;9492;51.888;5.186;2023-06-05T00:59:34;5.70;;;3.40;;
18726;SDS011;9492;51.888;5.186;2023-06-05T01:02:02;3.83;;;3.30;;
18726;SDS011;9492;51.888;5.186;2023-06-05T01:04:29;3.57;;;3.27;;
18726;SDS011;9492;51.888;5.186;2023-06-05T01:06:55;4.07;;;3.43;;
18726;SDS011;9492;51.888;5.186;2023-06-05T01:09:29;4.23;;;3.30;;
18726;SDS011;9492;51.888;5.186;2023-06-05T01:12:00;4.20;;;3.30;;
18726;SDS011;9492;51.888;5.186;2023-06-05T01:14:30;3.10;;;2.80;;
18726;SDS011;9492;51.888;5.186;2023-06-05T01:16:57;4.07;;;3.47;;
18726;SDS011;9492;51.888;5.186;2023-06-05T01:19:25;4.47;;;3.30;;
18726;SDS011;9492;51.888;5.186;2023-06-05T01:21:56;5.30;;;3.57;;
18726;SDS011;9492;51.888;5.186;2023-06-05T01:24:22;5.87;;;3.93;;
18726;SDS011;9492;51.888;5.186;2023-06-05T01:29:21;3.87;;;3.47;;
18726;SDS011;9492;51.888;5.186;2023-06-05T01:31:49;5.77;;;3.90;;
18726;SDS011;9492;51.888;5.186;2023-06-05T01:34:16;4.90;;;3.90;;
18726;SDS011;9492;51.888;5.186;2023-06-05T01:36:44;4.87;;;3.40;;
18726;SDS011;9492;51.888;5.186;2023-06-05T01:39:11;4.83;;;3.53;;
18726;SDS011;9492;51.888;5.186;2023-06-05T01:41:38;5.83;;;4.20;;
18726;SDS011;9492;51.888;5.186;2023-06-05T01:44:05;4.17;;;3.73;;
18726;SDS011;9492;51.888;5.186;2023-06-05T01:46:33;6.30;;;4.17;;
18726;SDS011;9492;51.888;5.186;2023-06-05T01:49:00;4.90;;;3.87;;
18726;SDS011;9492;51.888;5.186;2023-06-05T01:51:27;6.00;;;3.47;;
18726;SDS011;9492;51.888;5.186;2023-06-05T01:53:54;4.53;;;3.60;;
18726;SDS011;9492;51.888;5.186;2023-06-05T01:56:20;4.93;;;3.80;;
18726;SDS011;9492;51.888;5.186;2023-06-05T01:58:48;5.10;;;4.50;;
18726;SDS011;9492;51.888;5.186;2023-06-05T02:01:14;5.93;;;4.07;;
18726;SDS011;9492;51.888;5.186;2023-06-05T02:03:44;5.33;;;4.33;;
18726;SDS011;9492;51.888;5.186;2023-06-05T02:06:13;4.13;;;3.73;;
18726;SDS011;9492;51.888;5.186;2023-06-05T02:08:40;6.40;;;4.83;;
18726;SDS011;9492;51.888;5.186;2023-06-05T02:11:06;4.20;;;3.80;;
18726;SDS011;9492;51.888;5.186;2023-06-05T02:13:37;6.53;;;4.03;;
18726;SDS011;9492;51.888;5.186;2023-06-05T02:16:03;5.30;;;4.47;;
18726;SDS011;9492;51.888;5.186;2023-06-05T02:18:29;4.67;;;3.53;;
18726;SDS011;9492;51.888;5.186;2023-06-05T02:20:55;5.77;;;4.30;;
18726;SDS011;9492;51.888;5.186;2023-06-05T02:23:22;4.47;;;4.07;;
18726;SDS011;9492;51.888;5.186;2023-06-05T02:25:49;6.73;;;4.30;;
18726;SDS011;9492;51.888;5.186;2023-06-05T02:28:15;6.77;;;4.17;;
18726;SDS011;9492;51.888;5.186;2023-06-05T02:30:41;8.23;;;5.07;;
18726;SDS011;9492;51.888;5.186;2023-06-05T02:33:09;6.87;;;4.70;;
18726;SDS011;9492;51.888;5.186;2023-06-05T02:35:36;5.10;;;3.97;;
18726;SDS011;9492;51.888;5.186;2023-06-05T02:38:02;5.73;;;4.73;;
18726;SDS011;9492;51.888;5.186;2023-06-05T02:40:30;5.70;;;4.57;;
18726;SDS011;9492;51.888;5.186;2023-06-05T02:42:56;5.97;;;4.07;;
18726;SDS011;9492;51.888;5.186;2023-06-05T02:45:22;5.47;;;4.10;;
18726;SDS011;9492;51.888;5.186;2023-06-05T02:47:48;5.80;;;4.10;;
18726;SDS011;9492;51.888;5.186;2023-06-05T02:50:14;6.93;;;4.93;;
18726;SDS011;9492;51.888;5.186;2023-06-05T02:52:40;4.57;;;4.10;;
18726;SDS011;9492;51.888;5.186;2023-06-05T02:55:07;4.77;;;3.87;;
18726;SDS011;9492;51.888;5.186;2023-06-05T02:57:33;7.77;;;4.60;;
18726;SDS011;9492;51.888;5.186;2023-06-05T03:00:06;6.27;;;4.70;;
18726;SDS011;9492;51.888;5.186;2023-06-05T03:02:33;4.47;;;4.07;;
18726;SDS011;9492;51.888;5.186;2023-06-05T03:05:02;5.50;;;4.33;;
18726;SDS011;9492;51.888;5.186;2023-06-05T03:07:28;7.77;;;4.63;;
18726;SDS011;9492;51.888;5.186;2023-06-05T03:09:54;6.50;;;4.70;;
18726;SDS011;9492;51.888;5.186;2023-06-05T03:12:20;6.83;;;4.67;;
18726;SDS011;9492;51.888;5.186;2023-06-05T03:14:46;7.97;;;4.20;;
18726;SDS011;9492;51.888;5.186;2023-06-05T03:17:12;6.80;;;4.53;;
18726;SDS011;9492;51.888;5.186;2023-06-05T03:19:39;6.73;;;4.70;;
18726;SDS011;9492;51.888;5.186;2023-06-05T03:22:05;6.03;;;4.80;;
18726;SDS011;9492;51.888;5.186;2023-06-05T03:24:31;8.17;;;4.83;;
18726;SDS011;9492;51.888;5.186;2023-06-05T03:26:57;5.63;;;4.90;;
18726;SDS011;9492;51.888;5.186;2023-06-05T03:29:23;5.00;;;4.40;;
18726;SDS011;9492;51.888;5.186;2023-06-05T03:31:49;5.73;;;5.13;;
18726;SDS011;9492;51.888;5.186;2023-06-05T03:34:15;7.43;;;4.90;;
18726;SDS011;9492;51.888;5.186;2023-06-05T03:36:41;8.90;;;4.87;;
18726;SDS011;9492;51.888;5.186;2023-06-05T03:39:07;8.20;;;5.10;;
18726;SDS011;9492;51.888;5.186;2023-06-05T03:41:33;7.00;;;5.43;;
18726;SDS011;9492;51.888;5.186;2023-06-05T03:44:00;9.67;;;5.63;;
18726;SDS011;9492;51.888;5.186;2023-06-05T03:46:28;6.70;;;5.00;;
18726;SDS011;9492;51.888;5.186;2023-06-05T03:48:54;5.67;;;4.67;;
18726;SDS011;9492;51.888;5.186;2023-06-05T03:51:24;7.10;;;4.83;;
18726;SDS011;9492;51.888;5.186;2023-06-05T03:53:54;6.70;;;5.17;;
18726;SDS011;9492;51.888;5.186;2023-06-05T03:56:21;7.93;;;5.63;;
18726;SDS011;9492;51.888;5.186;2023-06-05T03:58:48;6.50;;;5.23;;
18726;SDS011;9492;51.888;5.186;2023-06-05T04:01:14;6.97;;;5.37;;
18726;SDS011;9492;51.888;5.186;2023-06-05T04:03:40;7.03;;;5.03;;
18726;SDS011;9492;51.888;5.186;2023-06-05T04:06:06;7.13;;;5.13;;
18726;SDS011;9492;51.888;5.186;2023-06-05T04:08:35;7.00;;;5.40;;
18726;SDS011;9492;51.888;5.186;2023-06-05T04:11:02;7.37;;;5.50;;
18726;SDS011;9492;51.888;5.186;2023-06-05T04:13:28;9.53;;;5.23;;
18726;SDS011;9492;51.888;5.186;2023-06-05T04:15:54;5.83;;;5.00;;
18726;SDS011;9492;51.888;5.186;2023-06-05T04:18:20;6.47;;;5.70;;
18726;SDS011;9492;51.888;5.186;2023-06-05T04:20:47;8.77;;;5.27;;
18726;SDS011;9492;51.888;5.186;2023-06-05T04:23:13;6.37;;;4.90;;
18726;SDS011;9492;51.888;5.186;2023-06-05T04:25:39;8.93;;;5.60;;
18726;SDS011;9492;51.888;5.186;2023-06-05T04:28:10;8.80;;;5.43;;
18726;SDS011;9492;51.888;5.186;2023-06-05T04:30:36;7.23;;;5.73;;
18726;SDS011;9492;51.888;5.186;2023-06-05T04:33:03;7.83;;;6.13;;
18726;SDS011;9492;51.888;5.186;2023-06-05T04:35:31;9.73;;;6.53;;
18726;SDS011;9492;51.888;5.186;2023-06-05T04:37:58;6.87;;;5.50;;
18726;SDS011;9492;51.888;5.186;2023-06-05T04:40:25;10.00;;;5.30;;
18726;SDS011;9492;51.888;5.186;2023-06-05T04:42:51;10.13;;;5.87;;
18726;SDS011;9492;51.888;5.186;2023-06-05T04:45:19;8.57;;;5.43;;
18726;SDS011;9492;51.888;5.186;2023-06-05T04:47:46;9.10;;;6.20;;
18726;SDS011;9492;51.888;5.186;2023-06-05T04:50:25;7.20;;;5.30;;
18726;SDS011;9492;51.888;5.186;2023-06-05T04:52:52;9.63;;;6.40;;
18726;SDS011;9492;51.888;5.186;2023-06-05T04:55:18;6.60;;;5.47;;
18726;SDS011;9492;51.888;5.186;2023-06-05T04:57:45;8.77;;;5.60;;
18726;SDS011;9492;51.888;5.186;2023-06-05T05:00:11;8.20;;;5.63;;
18726;SDS011;9492;51.888;5.186;2023-06-05T05:02:37;10.97;;;5.97;;
18726;SDS011;9492;51.888;5.186;2023-06-05T05:05:03;8.43;;;6.10;;
18726;SDS011;9492;51.888;5.186;2023-06-05T05:07:30;6.80;;;5.37;;
18726;SDS011;9492;51.888;5.186;2023-06-05T05:09:57;6.30;;;5.77;;
18726;SDS011;9492;51.888;5.186;2023-06-05T05:12:23;8.13;;;5.70;;
18726;SDS011;9492;51.888;5.186;2023-06-05T05:14:49;8.70;;;5.30;;
18726;SDS011;9492;51.888;5.186;2023-06-05T05:17:16;8.13;;;5.50;;
18726;SDS011;9492;51.888;5.186;2023-06-05T05:19:44;7.40;;;5.13;;
18726;SDS011;9492;51.888;5.186;2023-06-05T05:22:10;9.00;;;6.00;;
18726;SDS011;9492;51.888;5.186;2023-06-05T05:24:36;6.80;;;4.83;;
18726;SDS011;9492;51.888;5.186;2023-06-05T05:27:02;8.73;;;5.87;;
18726;SDS011;9492;51.888;5.186;2023-06-05T05:29:28;7.23;;;5.50;;
18726;SDS011;9492;51.888;5.186;2023-06-05T05:31:54;6.67;;;4.67;;
18726;SDS011;9492;51.888;5.186;2023-06-05T05:34:21;8.03;;;5.00;;
18726;SDS011;9492;51.888;5.186;2023-06-05T05:36:47;8.93;;;5.70;;
18726;SDS011;9492;51.888;5.186;2023-06-05T05:39:13;7.27;;;6.00;;
18726;SDS011;9492;51.888;5.186;2023-06-05T05:41:39;8.10;;;4.90;;
18726;SDS011;9492;51.888;5.186;2023-06-05T05:44:05;7.93;;;5.30;;
18726;SDS011;9492;51.888;5.186;2023-06-05T05:46:32;7.87;;;4.93;;
18726;SDS011;9492;51.888;5.186;2023-06-05T05:48:58;6.10;;;4.67;;
18726;SDS011;9492;51.888;5.186;2023-06-05T05:51:24;5.00;;;4.50;;
18726;SDS011;9492;51.888;5.186;2023-06-05T05:53:50;6.90;;;4.80;;
18726;SDS011;9492;51.888;5.186;2023-06-05T05:56:17;6.83;;;5.47;;
18726;SDS011;9492;51.888;5.186;2023-06-05T05:58:43;8.13;;;4.83;;
18726;SDS011;9492;51.888;5.186;2023-06-05T06:01:09;6.60;;;4.03;;
18726;SDS011;9492;51.888;5.186;2023-06-05T06:03:37;5.03;;;4.40;;
18726;SDS011;9492;51.888;5.186;2023-06-05T06:06:04;6.10;;;5.00;;
18726;SDS011;9492;51.888;5.186;2023-06-05T06:08:33;6.13;;;5.20;;
18726;SDS011;9492;51.888;5.186;2023-06-05T06:11:00;8.43;;;4.97;;
18726;SDS011;9492;51.888;5.186;2023-06-05T06:13:26;5.57;;;4.47;;
18726;SDS011;9492;51.888;5.186;2023-06-05T06:15:52;5.63;;;4.63;;
18726;SDS011;9492;51.888;5.186;2023-06-05T06:18:18;6.00;;;4.60;;
18726;SDS011;9492;51.888;5.186;2023-06-05T06:20:44;5.77;;;4.47;;
18726;SDS011;9492;51.888;5.186;2023-06-05T06:23:12;6.20;;;4.33;;
18726;SDS011;9492;51.888;5.186;2023-06-05T06:25:38;6.37;;;4.70;;
18726;SDS011;9492;51.888;5.186;2023-06-05T06:28:04;5.93;;;4.37;;
18726;SDS011;9492;51.888;5.186;2023-06-05T06:30:31;8.60;;;5.10;;
18726;SDS011;9492;51.888;5.186;2023-06-05T06:32:57;5.47;;;4.73;;
18726;SDS011;9492;51.888;5.186;2023-06-05T06:35:24;7.40;;;4.83;;
18726;SDS011;9492;51.888;5.186;2023-06-05T06:37:52;12.87;;;4.53;;
18726;SDS011;9492;51.888;5.186;2023-06-05T06:40:18;8.23;;;5.40;;
18726;SDS011;9492;51.888;5.186;2023-06-05T06:42:45;7.33;;;4.40;;
18726;SDS011;9492;51.888;5.186;2023-06-05T06:45:11;6.07;;;4.33;;
18726;SDS011;9492;51.888;5.186;2023-06-05T06:47:37;6.07;;;4.60;;
18726;SDS011;9492;51.888;5.186;2023-06-05T06:50:03;6.03;;;4.67;;
18726;SDS011;9492;51.888;5.186;2023-06-05T06:52:29;6.43;;;4.90;;
18726;SDS011;9492;51.888;5.186;2023-06-05T06:54:55;8.50;;;4.53;;
18726;SDS011;9492;51.888;5.186;2023-06-05T06:57:21;7.07;;;4.57;;
18726;SDS011;9492;51.888;5.186;2023-06-05T06:59:47;5.50;;;4.57;;
18726;SDS011;9492;51.888;5.186;2023-06-05T07:02:17;5.47;;;4.53;;
18726;SDS011;9492;51.888;5.186;2023-06-05T07:04:44;7.13;;;5.10;;
18726;SDS011;9492;51.888;5.186;2023-06-05T07:07:11;8.43;;;4.60;;
18726;SDS011;9492;51.888;5.186;2023-06-05T07:09:38;5.97;;;4.77;;
18726;SDS011;9492;51.888;5.186;2023-06-05T07:12:04;6.03;;;4.47;;
18726;SDS011;9492;51.888;5.186;2023-06-05T07:14:31;6.10;;;4.63;;
18726;SDS011;9492;51.888;5.186;2023-06-05T07:17:00;8.53;;;5.07;;
18726;SDS011;9492;51.888;5.186;2023-06-05T07:19:27;7.87;;;4.60;;
18726;SDS011;9492;51.888;5.186;2023-06-05T07:21:54;4.07;;;3.67;;
18726;SDS011;9492;51.888;5.186;2023-06-05T07:24:21;6.13;;;4.57;;
18726;SDS011;9492;51.888;5.186;2023-06-05T07:26:49;6.17;;;5.10;;
18726;SDS011;9492;51.888;5.186;2023-06-05T07:29:15;7.20;;;5.63;;
18726;SDS011;9492;51.888;5.186;2023-06-05T07:31:41;8.13;;;5.43;;
18726;SDS011;9492;51.888;5.186;2023-06-05T07:34:07;5.80;;;5.20;;
18726;SDS011;9492;51.888;5.186;2023-06-05T07:36:33;7.43;;;5.63;;
18726;SDS011;9492;51.888;5.186;2023-06-05T07:39:01;5.27;;;4.77;;
18726;SDS011;9492;51.888;5.186;2023-06-05T07:41:27;8.07;;;5.93;;
18726;SDS011;9492;51.888;5.186;2023-06-05T07:43:53;7.10;;;5.27;;
18726;SDS011;9492;51.888;5.186;2023-06-05T07:46:19;5.23;;;4.73;;
18726;SDS011;9492;51.888;5.186;2023-06-05T07:48:45;6.53;;;5.27;;
18726;SDS011;9492;51.888;5.186;2023-06-05T07:51:11;7.30;;;5.40;;
18726;SDS011;9492;51.888;5.186;2023-06-05T07:53:37;6.77;;;4.80;;
18726;SDS011;9492;51.888;5.186;2023-06-05T07:56:03;9.00;;;5.80;;
18726;SDS011;9492;51.888;5.186;2023-06-05T07:58:29;6.40;;;5.63;;
18726;SDS011;9492;51.888;5.186;2023-06-05T08:00:55;7.70;;;5.43;;
18726;SDS011;9492;51.888;5.186;2023-06-05T08:03:22;8.93;;;5.83;;
18726;SDS011;9492;51.888;5.186;2023-06-05T08:05:48;6.27;;;5.63;;
18726;SDS011;9492;51.888;5.186;2023-06-05T08:08:15;7.90;;;6.00;;
18726;SDS011;9492;51.888;5.186;2023-06-05T08:10:41;6.97;;;4.90;;
18726;SDS011;9492;51.888;5.186;2023-06-05T08:13:08;7.17;;;4.70;;
18726;SDS011;9492;51.888;5.186;2023-06-05T08:15:35;7.80;;;6.17;;
18726;SDS011;9492;51.888;5.186;2023-06-05T08:18:01;6.60;;;5.90;;
18726;SDS011;9492;51.888;5.186;2023-06-05T08:20:27;7.30;;;5.47;;
18726;SDS011;9492;51.888;5.186;2023-06-05T08:22:54;6.53;;;5.77;;
18726;SDS011;9492;51.888;5.186;2023-06-05T08:25:22;6.33;;;5.73;;
18726;SDS011;9492;51.888;5.186;2023-06-05T08:27:48;7.03;;;5.37;;
18726;SDS011;9492;51.888;5.186;2023-06-05T08:30:15;7.03;;;4.87;;
18726;SDS011;9492;51.888;5.186;2023-06-05T08:32:41;6.73;;;5.13;;
18726;SDS011;9492;51.888;5.186;2023-06-05T08:35:08;8.43;;;5.60;;
18726;SDS011;9492;51.888;5.186;2023-06-05T08:37:34;7.30;;;5.83;;
18726;SDS011;9492;51.888;5.186;2023-06-05T08:40:01;6.70;;;5.77;;
18726;SDS011;9492;51.888;5.186;2023-06-05T08:42:31;7.47;;;4.80;;
18726;SDS011;9492;51.888;5.186;2023-06-05T08:44:57;5.90;;;5.07;;
18726;SDS011;9492;51.888;5.186;2023-06-05T08:47:23;7.07;;;5.77;;
18726;SDS011;9492;51.888;5.186;2023-06-05T08:49:53;7.10;;;5.03;;
18726;SDS011;9492;51.888;5.186;2023-06-05T08:52:21;7.07;;;5.30;;
18726;SDS011;9492;51.888;5.186;2023-06-05T08:54:48;5.83;;;5.23;;
18726;SDS011;9492;51.888;5.186;2023-06-05T08:57:15;6.40;;;4.67;;
18726;SDS011;9492;51.888;5.186;2023-06-05T08:59:41;4.87;;;4.37;;
18726;SDS011;9492;51.888;5.186;2023-06-05T09:02:08;7.17;;;5.47;;
18726;SDS011;9492;51.888;5.186;2023-06-05T09:04:34;7.63;;;5.00;;
18726;SDS011;9492;51.888;5.186;2023-06-05T09:07:00;6.33;;;5.17;;
18726;SDS011;9492;51.888;5.186;2023-06-05T09:09:26;5.23;;;4.73;;
18726;SDS011;9492;51.888;5.186;2023-06-05T09:12:02;7.10;;;5.47;;
18726;SDS011;9492;51.888;5.186;2023-06-05T09:14:28;5.23;;;4.67;;
18726;SDS011;9492;51.888;5.186;2023-06-05T09:16:56;6.37;;;5.03;;
18726;SDS011;9492;51.888;5.186;2023-06-05T09:19:22;8.10;;;5.13;;
18726;SDS011;9492;51.888;5.186;2023-06-05T09:21:52;6.63;;;5.03;;
18726;SDS011;9492;51.888;5.186;2023-06-05T09:24:19;7.13;;;6.10;;
18726;SDS011;9492;51.888;5.186;2023-06-05T09:26:47;5.90;;;4.93;;
18726;SDS011;9492;51.888;5.186;2023-06-05T09:29:13;6.47;;;5.37;;
18726;SDS011;9492;51.888;5.186;2023-06-05T09:31:40;6.83;;;5.90;;
18726;SDS011;9492;51.888;5.186;2023-06-05T09:34:07;8.53;;;5.80;;
18726;SDS011;9492;51.888;5.186;2023-06-05T09:36:33;7.93;;;6.17;;
18726;SDS011;9492;51.888;5.186;2023-06-05T09:39:13;6.33;;;5.20;;
18726;SDS011;9492;51.888;5.186;2023-06-05T09:41:43;6.27;;;5.07;;
18726;SDS011;9492;51.888;5.186;2023-06-05T09:44:12;8.03;;;5.57;;
18726;SDS011;9492;51.888;5.186;2023-06-05T09:49:19;6.17;;;5.57;;
18726;SDS011;9492;51.888;5.186;2023-06-05T09:51:46;6.20;;;5.60;;
18726;SDS011;9492;51.888;5.186;2023-06-05T09:54:13;7.33;;;5.90;;
18726;SDS011;9492;51.888;5.186;2023-06-05T09:56:40;6.50;;;5.20;;
18726;SDS011;9492;51.888;5.186;2023-06-05T09:59:09;6.47;;;5.10;;
18726;SDS011;9492;51.888;5.186;2023-06-05T10:01:39;5.80;;;5.30;;
18726;SDS011;9492;51.888;5.186;2023-06-05T10:04:07;8.57;;;6.13;;
18726;SDS011;9492;51.888;5.186;2023-06-05T10:06:34;6.20;;;5.60;;
18726;SDS011;9492;51.888;5.186;2023-06-05T10:09:02;7.87;;;6.10;;
18726;SDS011;9492;51.888;5.186;2023-06-05T10:11:28;7.20;;;5.83;;
18726;SDS011;9492;51.888;5.186;2023-06-05T10:13:55;6.07;;;5.30;;
18726;SDS011;9492;51.888;5.186;2023-06-05T10:16:25;5.57;;;4.90;;
18726;SDS011;9492;51.888;5.186;2023-06-05T10:18:51;6.57;;;5.97;;
18726;SDS011;9492;51.888;5.186;2023-06-05T10:21:17;8.13;;;6.40;;
18726;SDS011;9492;51.888;5.186;2023-06-05T10:23:49;7.70;;;5.80;;
18726;SDS011;9492;51.888;5.186;2023-06-05T10:26:39;6.30;;;5.57;;
18726;SDS011;9492;51.888;5.186;2023-06-05T10:31:48;6.07;;;5.47;;
18726;SDS011;9492;51.888;5.186;2023-06-05T10:37:04;6.30;;;5.37;;
18726;SDS011;9492;51.888;5.186;2023-06-05T10:39:33;9.40;;;6.27;;
18726;SDS011;9492;51.888;5.186;2023-06-05T10:41:59;8.17;;;5.70;;
18726;SDS011;9492;51.888;5.186;2023-06-05T10:44:42;10.03;;;5.70;;
18726;SDS011;9492;51.888;5.186;2023-06-05T10:52:37;5.07;;;4.63;;
18726;SDS011;9492;51.888;5.186;2023-06-05T10:55:03;4.97;;;4.47;;
18726;SDS011;9492;51.888;5.186;2023-06-05T10:58:01;5.87;;;5.27;;
18726;SDS011;9492;51.888;5.186;2023-06-05T11:00:16;6.93;;;5.70;;
18726;SDS011;9492;51.888;5.186;2023-06-05T11:02:48;6.13;;;5.30;;
18726;SDS011;9492;51.888;5.186;2023-06-05T11:05:14;5.93;;;4.87;;
18726;SDS011;9492;51.888;5.186;2023-06-05T11:07:41;5.10;;;4.40;;
18726;SDS011;9492;51.888;5.186;2023-06-05T11:10:11;7.27;;;5.17;;
18726;SDS011;9492;51.888;5.186;2023-06-05T11:15:16;4.40;;;4.00;;
18726;SDS011;9492;51.888;5.186;2023-06-05T11:20:55;5.43;;;4.27;;
18726;SDS011;9492;51.888;5.186;2023-06-05T11:23:21;8.33;;;5.03;;
18726;SDS011;9492;51.888;5.186;2023-06-05T11:25:52;5.00;;;3.97;;
18726;SDS011;9492;51.888;5.186;2023-06-05T11:28:37;4.03;;;3.63;;
18726;SDS011;9492;51.888;5.186;2023-06-05T11:31:04;5.10;;;3.70;;
18726;SDS011;9492;51.888;5.186;2023-06-05T11:33:30;5.67;;;4.37;;
18726;SDS011;9492;51.888;5.186;2023-06-05T11:35:59;7.77;;;4.50;;
18726;SDS011;9492;51.888;5.186;2023-06-05T11:38:25;4.90;;;4.03;;
18726;SDS011;9492;51.888;5.186;2023-06-05T11:40:51;5.70;;;4.50;;
18726;SDS011;9492;51.888;5.186;2023-06-05T11:43:18;5.33;;;4.00;;
18726;SDS011;9492;51.888;5.186;2023-06-05T11:45:51;5.23;;;3.93;;
18726;SDS011;9492;51.888;5.186;2023-06-05T11:48:17;4.77;;;3.80;;
18726;SDS011;9492;51.888;5.186;2023-06-05T11:53:20;5.20;;;4.20;;
18726;SDS011;9492;51.888;5.186;2023-06-05T11:55:46;5.20;;;4.10;;
18726;SDS011;9492;51.888;5.186;2023-06-05T11:58:21;4.57;;;3.80;;
18726;SDS011;9492;51.888;5.186;2023-06-05T12:00:47;5.83;;;3.80;;
18726;SDS011;9492;51.888;5.186;2023-06-05T12:03:19;5.27;;;3.83;;
18726;SDS011;9492;51.888;5.186;2023-06-05T12:05:49;4.17;;;3.67;;
18726;SDS011;9492;51.888;5.186;2023-06-05T12:08:24;4.30;;;3.90;;
18726;SDS011;9492;51.888;5.186;2023-06-05T12:10:52;5.90;;;3.73;;
18726;SDS011;9492;51.888;5.186;2023-06-05T12:13:18;4.77;;;4.23;;
18726;SDS011;9492;51.888;5.186;2023-06-05T12:15:55;4.90;;;4.33;;
18726;SDS011;9492;51.888;5.186;2023-06-05T12:18:30;6.13;;;4.17;;
18726;SDS011;9492;51.888;5.186;2023-06-05T12:20:55;4.03;;;3.63;;
18726;SDS011;9492;51.888;5.186;2023-06-05T12:23:22;6.40;;;4.13;;
18726;SDS011;9492;51.888;5.186;2023-06-05T12:25:57;5.40;;;3.93;;
18726;SDS011;9492;51.888;5.186;2023-06-05T12:28:23;6.10;;;4.37;;
18726;SDS011;9492;51.888;5.186;2023-06-05T12:30:51;8.77;;;4.47;;
18726;SDS011;9492;51.888;5.186;2023-06-05T12:33:17;5.73;;;4.47;;
18726;SDS011;9492;51.888;5.186;2023-06-05T12:35:44;7.83;;;4.90;;
18726;SDS011;9492;51.888;5.186;2023-06-05T12:38:10;4.70;;;3.80;;
18726;SDS011;9492;51.888;5.186;2023-06-05T12:40:36;6.00;;;3.77;;
18726;SDS011;9492;51.888;5.186;2023-06-05T12:43:02;5.03;;;4.23;;
18726;SDS011;9492;51.888;5.186;2023-06-05T12:45:28;4.57;;;3.57;;
18726;SDS011;9492;51.888;5.186;2023-06-05T12:47:55;4.00;;;3.53;;
18726;SDS011;9492;51.888;5.186;2023-06-05T12:50:21;4.37;;;3.57;;
18726;SDS011;9492;51.888;5.186;2023-06-05T12:52:48;5.50;;;3.20;;
18726;SDS011;9492;51.888;5.186;2023-06-05T12:55:14;5.20;;;3.40;;
18726;SDS011;9492;51.888;5.186;2023-06-05T12:57:40;5.10;;;3.77;;
18726;SDS011;9492;51.888;5.186;2023-06-05T13:00:06;4.90;;;3.07;;
18726;SDS011;9492;51.888;5.186;2023-06-05T13:02:37;4.33;;;3.67;;
18726;SDS011;9492;51.888;5.186;2023-06-05T13:05:03;3.47;;;3.03;;
18726;SDS011;9492;51.888;5.186;2023-06-05T13:07:29;5.20;;;3.10;;
18726;SDS011;9492;51.888;5.186;2023-06-05T13:09:56;5.00;;;3.40;;
18726;SDS011;9492;51.888;5.186;2023-06-05T13:12:22;5.60;;;3.40;;
18726;SDS011;9492;51.888;5.186;2023-06-05T13:14:48;7.57;;;3.70;;
18726;SDS011;9492;51.888;5.186;2023-06-05T13:17:14;6.17;;;3.70;;
18726;SDS011;9492;51.888;5.186;2023-06-05T13:19:41;3.90;;;3.20;;
18726;SDS011;9492;51.888;5.186;2023-06-05T13:22:06;3.33;;;2.93;;
18726;SDS011;9492;51.888;5.186;2023-06-05T13:24:32;4.43;;;3.13;;
18726;SDS011;9492;51.888;5.186;2023-06-05T13:26:58;14.77;;;3.90;;
18726;SDS011;9492;51.888;5.186;2023-06-05T13:29:24;6.67;;;3.57;;
18726;SDS011;9492;51.888;5.186;2023-06-05T13:31:50;3.43;;;3.13;;
18726;SDS011;9492;51.888;5.186;2023-06-05T13:34:16;4.50;;;3.10;;
18726;SDS011;9492;51.888;5.186;2023-06-05T13:36:42;4.97;;;3.13;;
18726;SDS011;9492;51.888;5.186;2023-06-05T13:39:09;5.20;;;3.80;;
18726;SDS011;9492;51.888;5.186;2023-06-05T13:41:35;3.43;;;2.83;;
18726;SDS011;9492;51.888;5.186;2023-06-05T13:44:01;5.27;;;3.80;;
18726;SDS011;9492;51.888;5.186;2023-06-05T13:46:27;4.00;;;3.47;;
18726;SDS011;9492;51.888;5.186;2023-06-05T13:48:53;4.90;;;3.67;;
18726;SDS011;9492;51.888;5.186;2023-06-05T13:51:21;6.90;;;3.70;;
18726;SDS011;9492;51.888;5.186;2023-06-05T13:53:47;6.77;;;3.93;;
18726;SDS011;9492;51.888;5.186;2023-06-05T13:56:13;4.53;;;3.50;;
18726;SDS011;9492;51.888;5.186;2023-06-05T13:58:39;4.83;;;4.17;;
18726;SDS011;9492;51.888;5.186;2023-06-05T14:01:05;4.00;;;3.60;;
18726;SDS011;9492;51.888;5.186;2023-06-05T14:03:31;6.93;;;3.77;;
18726;SDS011;9492;51.888;5.186;2023-06-05T14:05:57;7.43;;;4.57;;
18726;SDS011;9492;51.888;5.186;2023-06-05T14:08:23;4.40;;;3.57;;
18726;SDS011;9492;51.888;5.186;2023-06-05T14:10:49;4.20;;;3.37;;
18726;SDS011;9492;51.888;5.186;2023-06-05T14:13:15;3.73;;;3.40;;
18726;SDS011;9492;51.888;5.186;2023-06-05T14:15:41;5.23;;;3.90;;
18726;SDS011;9492;51.888;5.186;2023-06-05T14:18:08;3.40;;;3.10;;
18726;SDS011;9492;51.888;5.186;2023-06-05T14:20:34;4.50;;;3.37;;
18726;SDS011;9492;51.888;5.186;2023-06-05T14:23:01;3.63;;;3.30;;
18726;SDS011;9492;51.888;5.186;2023-06-05T14:25:27;3.50;;;3.20;;
18726;SDS011;9492;51.888;5.186;2023-06-05T14:27:56;4.07;;;3.33;;
18726;SDS011;9492;51.888;5.186;2023-06-05T14:30:23;5.80;;;3.07;;
18726;SDS011;9492;51.888;5.186;2023-06-05T14:32:49;4.43;;;3.00;;
18726;SDS011;9492;51.888;5.186;2023-06-05T14:35:15;5.23;;;3.30;;
18726;SDS011;9492;51.888;5.186;2023-06-05T14:37:42;5.33;;;3.53;;
18726;SDS011;9492;51.888;5.186;2023-06-05T14:40:08;7.40;;;3.73;;
18726;SDS011;9492;51.888;5.186;2023-06-05T14:42:34;3.87;;;3.47;;
18726;SDS011;9492;51.888;5.186;2023-06-05T14:45:01;3.37;;;3.07;;
18726;SDS011;9492;51.888;5.186;2023-06-05T14:47:27;4.77;;;3.50;;
18726;SDS011;9492;51.888;5.186;2023-06-05T14:49:53;5.20;;;3.80;;
18726;SDS011;9492;51.888;5.186;2023-06-05T14:52:19;3.80;;;3.20;;
18726;SDS011;9492;51.888;5.186;2023-06-05T14:54:45;5.27;;;3.70;;
18726;SDS011;9492;51.888;5.186;2023-06-05T14:57:11;3.80;;;3.13;;
18726;SDS011;9492;51.888;5.186;2023-06-05T14:59:37;4.43;;;3.90;;
18726;SDS011;9492;51.888;5.186;2023-06-05T15:02:04;5.00;;;3.63;;
18726;SDS011;9492;51.888;5.186;2023-06-05T15:04:30;4.87;;;3.50;;
18726;SDS011;9492;51.888;5.186;2023-06-05T15:06:56;5.63;;;3.20;;
18726;SDS011;9492;51.888;5.186;2023-06-05T15:09:22;3.93;;;3.60;;
18726;SDS011;9492;51.888;5.186;2023-06-05T15:11:48;4.17;;;3.67;;
18726;SDS011;9492;51.888;5.186;2023-06-05T15:14:16;3.80;;;3.40;;
18726;SDS011;9492;51.888;5.186;2023-06-05T15:16:42;4.73;;;3.10;;
18726;SDS011;9492;51.888;5.186;2023-06-05T15:19:08;5.07;;;3.40;;
18726;SDS011;9492;51.888;5.186;2023-06-05T15:21:34;6.60;;;3.80;;
18726;SDS011;9492;51.888;5.186;2023-06-05T15:24:01;4.10;;;3.40;;